Smyrna Airport
KMQY : now visible

Airfield :











YOU CAN JOIN US ON...

 
LOGIN :

Register | Disclaimer

   EN    FR    IT 

 









Legend :    VFR   Marginal VFR   IFR   Intensive IFR   Very Intensive IFR
Visi :
Ceiling :
>= 8 km
>= 3000ft
5 to 8 km
1000 to 3000 ft
1500m to 5 km
500 to 1000 ft
800 to 1500m
200 to 500 ft
< 800m
< 200 ft
Symbols :   Thunderstorms  Fog  Heavy snow  Heavy precipitations  Wind > 20 kt






- Airport Elevation : 543 ft


KMQY - Smyrna

CURRENT METAR :
  • 161110Z AUTO 31010KT 10SM FEW024 11/09 A3009 RMK AO2

EXPIRED METARs :
  • 161056Z AUTO 32011KT 10SM BKN026 12/09 A3008 RMK AO2 PK WND 31026/1015 SLP192 T01170089
  • 160956Z AUTO 32020G26KT 10SM OVC020 13/11 A3003 RMK AO2 PK WND 33026/0956 SLP173 T01330106
  • 160856Z AUTO 31015G20KT 10SM BKN015 OVC022 14/12 A2999 RMK AO2 SLP160 60006 T01390122 53035

TAF KMQY
Valid from the 16 at 12:00 until the 17 at 12:00 UTC


161120Z 1612/1712 32009KT P6SM SKC
FM161400 33012G21KT P6SM SKC
FM162300 33005KT P6SM SKC
KZME FIR / North America



MET'MAP, your aeronautical weather chart ! - Copyright ORBIFLY December 2007 - Disclaimer

ORBIFLY MET'MAP TEAM :

Programming & Development : Alexandra Zaïnal
Concept & original design : Baudouin d'Aumeries
Assistance for programming : Marc-Olivier Méhu
Technical & hardware support : Manuel Goepfert

Contact : metmap@orbifly.com




SOURCES & CREDITS :

   NOAA       Earth
Advisory